Time,TemperatureF,DewpointF,PressureIn,WindDirection,WindDirectionDegrees,WindSpeedMPH,WindSpeedGustMPH,Humidity,HourlyPrecipIn,Conditions,Clouds,dailyrainin,SoftwareType,DateUTC
2013-01-16 00:02:00,13.0,8.0,-100.00,NW,308,1.0,3.0,78,-99.99,,,-99.99,,2013-01-16 07:02:00,
2013-01-16 00:11:00,13.0,8.0,-100.00,NW,308,1.0,3.0,78,-99.99,,,-99.99,,2013-01-16 07:11:00,
2013-01-16 00:22:00,13.0,8.0,-100.00,NW,308,1.0,1.0,78,-99.99,,,-99.99,,2013-01-16 07:22:00,
2013-01-16 00:32:00,13.0,8.0,-100.00,WNW,286,1.0,2.0,78,-99.99,,,-99.99,,2013-01-16 07:32:00,
2013-01-16 00:42:00,13.0,8.0,-100.00,WNW,286,1.0,2.0,78,-99.99,,,-99.99,,2013-01-16 07:42:00,
2013-01-16 00:52:00,13.0,8.0,-100.00,WNW,286,1.0,2.0,78,-99.99,,,-99.99,,2013-01-16 07:52:00,
2013-01-16 01:02:00,13.0,8.0,-100.00,WSW,247,1.0,4.0,79,-99.99,,,-99.99,,2013-01-16 08:02:00,
2013-01-16 01:11:00,13.0,8.0,-100.00,WSW,247,1.0,4.0,79,-99.99,,,-99.99,,2013-01-16 08:11:00,
2013-01-16 01:22:00,13.0,8.0,-100.00,NNE,22,4.0,7.0,79,-99.99,,,-99.99,,2013-01-16 08:22:00,
2013-01-16 01:32:00,13.0,8.0,-100.00,WNW,288,3.0,5.0,79,-99.99,,,-99.99,,2013-01-16 08:32:00,
2013-01-16 01:42:00,13.0,8.0,-100.00,WNW,286,7.0,9.0,79,-99.99,,,-99.99,,2013-01-16 08:42:00,
2013-01-16 01:52:00,13.0,8.0,-100.00,WNW,286,7.0,9.0,79,-99.99,,,-99.99,,2013-01-16 08:52:00,
2013-01-16 02:02:00,12.0,7.0,-100.00,WNW,284,5.0,6.0,80,-99.99,,,-99.99,,2013-01-16 09:02:00,
2013-01-16 02:11:00,12.0,7.0,-100.00,South,180,0.0,7.0,80,-99.99,,,-99.99,,2013-01-16 09:11:00,
2013-01-16 02:22:00,12.0,7.0,-100.00,South,180,0.0,7.0,80,-99.99,,,-99.99,,2013-01-16 09:22:00,
2013-01-16 02:32:00,10.0,6.0,-100.00,ESE,111,4.0,6.0,80,-99.99,,,-99.99,,2013-01-16 09:32:00,
2013-01-16 02:42:00,10.0,6.0,-100.00,ESE,111,4.0,6.0,80,-99.99,,,-99.99,,2013-01-16 09:42:00,
2013-01-16 02:52:00,9.0,5.0,-100.00,East,88,4.0,5.0,82,-99.99,,,-99.99,,2013-01-16 09:52:00,
2013-01-16 03:02:00,9.0,5.0,-100.00,NE,45,3.0,5.0,83,-99.99,,,-99.99,,2013-01-16 10:02:00,
2013-01-16 03:11:00,9.0,5.0,-100.00,NE,45,3.0,5.0,83,-99.99,,,-99.99,,2013-01-16 10:11:00,
2013-01-16 03:22:00,9.0,5.0,-100.00,ENE,73,4.0,4.0,82,-99.99,,,-99.99,,2013-01-16 10:22:00,
2013-01-16 03:32:00,9.0,5.0,-100.00,East,98,3.0,4.0,82,-99.99,,,-99.99,,2013-01-16 10:32:00,
2013-01-16 03:42:00,9.0,5.0,-100.00,East,98,3.0,4.0,82,-99.99,,,-99.99,,2013-01-16 10:42:00,
2013-01-16 03:52:00,9.0,5.0,-100.00,East,98,2.0,3.0,83,-99.99,,,-99.99,,2013-01-16 10:52:00,
2013-01-16 04:02:00,8.0,4.0,-100.00,South,180,0.0,5.0,83,-99.99,,,-99.99,,2013-01-16 11:02:00,
2013-01-16 04:11:00,8.0,4.0,-100.00,South,180,0.0,5.0,83,-99.99,,,-99.99,,2013-01-16 11:11:00,
2013-01-16 04:22:00,8.0,4.0,-100.00,South,180,0.0,5.0,83,-99.99,,,-99.99,,2013-01-16 11:22:00,
2013-01-16 04:32:00,8.0,4.0,-100.00,North,0,0.0,2.0,83,-99.99,,,-99.99,,2013-01-16 11:32:00,
2013-01-16 04:42:00,8.0,4.0,-100.00,North,0,0.0,2.0,83,-99.99,,,-99.99,,2013-01-16 11:42:00,
2013-01-16 04:52:00,8.0,4.0,-100.00,North,0,0.0,1.0,83,-99.99,,,-99.99,,2013-01-16 11:52:00,
2013-01-16 05:02:00,7.0,3.0,-100.00,East,81,2.0,3.0,83,-99.99,,,-99.99,,2013-01-16 12:02:00,
2013-01-16 05:12:00,7.0,3.0,-100.00,East,81,2.0,3.0,83,-99.99,,,-99.99,,2013-01-16 12:12:00,
2013-01-16 05:22:00,7.0,3.0,-100.00,East,81,1.0,3.0,84,-99.99,,,-99.99,,2013-01-16 12:22:00,
2013-01-16 05:32:00,8.0,4.0,-100.00,ESE,103,1.0,3.0,84,-99.99,,,-99.99,,2013-01-16 12:32:00,
2013-01-16 05:42:00,8.0,4.0,-100.00,ESE,103,1.0,3.0,84,-99.99,,,-99.99,,2013-01-16 12:42:00,
2013-01-16 05:52:00,7.0,3.0,-100.00,East,80,2.0,2.0,84,-99.99,,,-99.99,,2013-01-16 12:52:00,
2013-01-16 06:02:00,6.0,3.0,-100.00,North,0,0.0,1.0,84,-99.99,,,-99.99,,2013-01-16 13:02:00,
2013-01-16 06:12:00,6.0,3.0,-100.00,North,0,0.0,1.0,84,-99.99,,,-99.99,,2013-01-16 13:12:00,
2013-01-16 06:22:00,7.0,4.0,-100.00,East,87,1.0,2.0,85,-99.99,,,-99.99,,2013-01-16 13:22:00,
2013-01-16 06:32:00,7.0,3.0,-100.00,North,0,0.0,1.0,85,-99.99,,,-99.99,,2013-01-16 13:32:00,
2013-01-16 06:42:00,7.0,3.0,-100.00,East,87,2.0,2.0,85,-99.99,,,-99.99,,2013-01-16 13:42:00,
2013-01-16 06:52:00,7.0,3.0,-100.00,East,87,2.0,2.0,85,-99.99,,,-99.99,,2013-01-16 13:52:00,
2013-01-16 07:02:00,6.0,3.0,-100.00,NW,319,2.0,2.0,85,-99.99,,,-99.99,,2013-01-16 14:02:00,
2013-01-16 07:11:00,7.0,3.0,-100.00,NW,319,1.0,2.0,85,-99.99,,,-99.99,,2013-01-16 14:11:00,
2013-01-16 07:22:00,7.0,3.0,-100.00,NW,319,1.0,2.0,85,-99.99,,,-99.99,,2013-01-16 14:22:00,
2013-01-16 07:32:00,8.0,4.0,-100.00,North,0,0.0,1.0,84,-99.99,,,-99.99,,2013-01-16 14:32:00,
2013-01-16 07:42:00,9.0,5.0,-100.00,NNW,333,0.0,2.0,85,-99.99,,,-99.99,,2013-01-16 14:42:00,
2013-01-16 07:52:00,9.0,5.0,-100.00,NNW,333,0.0,2.0,85,-99.99,,,-99.99,,2013-01-16 14:52:00,
2013-01-16 08:02:00,8.0,5.0,-100.00,NE,34,0.0,3.0,84,-99.99,,,-99.99,,2013-01-16 15:02:00,
2013-01-16 08:11:00,9.0,5.0,-100.00,North,0,0.0,1.0,84,-99.99,,,-99.99,,2013-01-16 15:11:00,
2013-01-16 08:22:00,9.0,5.0,-100.00,North,0,0.0,1.0,84,-99.99,,,-99.99,,2013-01-16 15:22:00,
2013-01-16 08:32:00,10.0,6.0,-100.00,North,4,0.0,1.0,85,-99.99,,,-99.99,,2013-01-16 15:32:00,
2013-01-16 08:42:00,10.0,6.0,-100.00,North,4,1.0,2.0,85,-99.99,,,-99.99,,2013-01-16 15:42:00,
2013-01-16 08:52:00,10.0,6.0,-100.00,North,4,1.0,2.0,85,-99.99,,,-99.99,,2013-01-16 15:52:00,
2013-01-16 09:03:00,10.0,6.0,-100.00,North,4,1.0,2.0,85,-99.99,,,-99.99,,2013-01-16 16:03:00,
2013-01-16 09:12:00,10.0,7.0,-100.00,East,92,2.0,4.0,86,-99.99,,,-99.99,,2013-01-16 16:12:00,
2013-01-16 09:22:00,10.0,7.0,-100.00,East,92,2.0,4.0,86,-99.99,,,-99.99,,2013-01-16 16:22:00,
2013-01-16 09:32:00,10.0,7.0,-100.00,East,88,3.0,4.0,87,-99.99,,,-99.99,,2013-01-16 16:32:00,
2013-01-16 09:42:00,10.0,7.0,-100.00,East,88,3.0,4.0,87,-99.99,,,-99.99,,2013-01-16 16:42:00,
2013-01-16 09:52:00,10.0,7.0,-100.00,East,88,3.0,4.0,87,-99.99,,,-99.99,,2013-01-16 16:52:00,
2013-01-16 10:02:00,10.0,7.0,-100.00,ENE,72,4.0,4.0,87,-99.99,,,-99.99,,2013-01-16 17:02:00,
2013-01-16 10:12:00,10.0,7.0,-100.00,ENE,72,4.0,4.0,87,-99.99,,,-99.99,,2013-01-16 17:12:00,
2013-01-16 10:22:00,10.0,7.0,-100.00,ENE,72,4.0,4.0,87,-99.99,,,-99.99,,2013-01-16 17:22:00,
2013-01-16 10:33:00,11.0,8.0,-100.00,East,79,2.0,5.0,87,-99.99,,,-99.99,,2013-01-16 17:33:00,
2013-01-16 10:43:00,11.0,8.0,-100.00,East,92,4.0,5.0,86,-99.99,,,-99.99,,2013-01-16 17:43:00,
2013-01-16 10:53:00,11.0,8.0,-100.00,East,92,4.0,5.0,86,-99.99,,,-99.99,,2013-01-16 17:53:00,
2013-01-16 11:02:00,13.0,9.0,-100.00,NNE,32,2.0,4.0,84,-99.99,,,-99.99,,2013-01-16 18:02:00,
2013-01-16 11:12:00,13.0,9.0,-100.00,NNE,32,2.0,4.0,84,-99.99,,,-99.99,,2013-01-16 18:12:00,
2013-01-16 11:22:00,13.0,9.0,-100.00,NNE,32,2.0,4.0,84,-99.99,,,-99.99,,2013-01-16 18:22:00,
2013-01-16 11:33:00,20.0,15.0,-100.00,North,0,0.0,2.0,81,-99.99,,,-99.99,,2013-01-16 18:33:00,
2013-01-16 11:42:00,20.0,15.0,-100.00,North,0,0.0,2.0,81,-99.99,,,-99.99,,2013-01-16 18:42:00,
2013-01-16 11:52:00,15.0,9.0,-100.00,ESE,109,4.0,5.0,77,-99.99,,,-99.99,,2013-01-16 18:52:00,
2013-01-16 12:02:00,15.0,8.0,-100.00,East,90,4.0,6.0,74,-99.99,,,-99.99,,2013-01-16 19:02:00,
2013-01-16 12:12:00,15.0,8.0,-100.00,East,90,4.0,6.0,74,-99.99,,,-99.99,,2013-01-16 19:12:00,
2013-01-16 12:22:00,15.0,8.0,-100.00,East,90,4.0,6.0,74,-99.99,,,-99.99,,2013-01-16 19:22:00,
2013-01-16 12:33:00,16.0,9.0,-100.00,East,90,2.0,4.0,75,-99.99,,,-99.99,,2013-01-16 19:33:00,
2013-01-16 12:42:00,15.0,9.0,-100.00,East,101,7.0,7.0,75,-99.99,,,-99.99,,2013-01-16 19:42:00,
2013-01-16 12:52:00,15.0,9.0,-100.00,East,101,7.0,7.0,75,-99.99,,,-99.99,,2013-01-16 19:52:00,
2013-01-16 13:03:00,15.0,9.0,-100.00,East,101,7.0,7.0,75,-99.99,,,-99.99,,2013-01-16 20:03:00,
2013-01-16 13:12:00,17.0,11.0,-100.00,ESE,110,4.0,6.0,74,-99.99,,,-99.99,,2013-01-16 20:12:00,
2013-01-16 13:22:00,17.0,11.0,-100.00,ESE,110,4.0,6.0,74,-99.99,,,-99.99,,2013-01-16 20:22:00,
2013-01-16 13:33:00,22.0,14.0,-100.00,South,178,2.0,4.0,69,-99.99,,,-99.99,,2013-01-16 20:33:00,
2013-01-16 13:42:00,22.0,14.0,-100.00,South,178,2.0,4.0,69,-99.99,,,-99.99,,2013-01-16 20:42:00,
2013-01-16 13:53:00,25.0,17.0,-100.00,SW,215,1.0,3.0,69,-99.99,,,-99.99,,2013-01-16 20:53:00,
2013-01-16 14:02:00,21.0,10.0,-100.00,East,87,6.0,6.0,62,-99.99,,,-99.99,,2013-01-16 21:02:00,
2013-01-16 14:12:00,21.0,10.0,-100.00,East,87,6.0,6.0,62,-99.99,,,-99.99,,2013-01-16 21:12:00,
2013-01-16 14:22:00,21.0,10.0,-100.00,East,87,6.0,6.0,62,-99.99,,,-99.99,,2013-01-16 21:22:00,
2013-01-16 14:32:00,19.0,11.0,-100.00,East,95,4.0,7.0,70,-99.99,,,-99.99,,2013-01-16 21:32:00,
2013-01-16 14:42:00,22.0,12.0,-100.00,East,95,3.0,4.0,65,-99.99,,,-99.99,,2013-01-16 21:42:00,
2013-01-16 14:52:00,22.0,12.0,-100.00,East,95,3.0,4.0,65,-99.99,,,-99.99,,2013-01-16 21:52:00,
2013-01-16 15:02:00,22.0,13.0,-100.00,East,96,4.0,5.0,66,-99.99,,,-99.99,,2013-01-16 22:02:00,
2013-01-16 15:12:00,22.0,13.0,-100.00,East,96,4.0,5.0,66,-99.99,,,-99.99,,2013-01-16 22:12:00,
2013-01-16 15:22:00,23.0,13.0,-100.00,East,87,4.0,5.0,66,-99.99,,,-99.99,,2013-01-16 22:22:00,
2013-01-16 15:33:00,27.0,15.0,-100.00,SSE,152,1.0,4.0,61,-99.99,,,-99.99,,2013-01-16 22:33:00,
2013-01-16 15:43:00,27.0,15.0,-100.00,SSE,152,1.0,4.0,61,-99.99,,,-99.99,,2013-01-16 22:43:00,
2013-01-16 15:52:00,25.0,16.0,-100.00,WNW,292,6.0,9.0,66,-99.99,,,-99.99,,2013-01-16 22:52:00,
2013-01-16 16:02:00,25.0,16.0,-100.00,WNW,285,5.0,11.0,70,-99.99,,,-99.99,,2013-01-16 23:02:00,
2013-01-16 16:12:00,25.0,16.0,-100.00,WNW,285,5.0,11.0,70,-99.99,,,-99.99,,2013-01-16 23:12:00,
2013-01-16 16:22:00,24.0,16.0,-100.00,WNW,290,6.0,9.0,69,-99.99,,,-99.99,,2013-01-16 23:22:00,
2013-01-16 16:32:00,23.0,15.0,-100.00,NW,307,8.0,10.0,70,-99.99,,,-99.99,,2013-01-16 23:32:00,
2013-01-16 16:42:00,23.0,15.0,-100.00,NW,307,8.0,10.0,70,-99.99,,,-99.99,,2013-01-16 23:42:00,
2013-01-16 16:52:00,23.0,15.0,-100.00,NW,306,7.0,10.0,70,-99.99,,,-99.99,,2013-01-16 23:52:00,
2013-01-16 17:02:00,23.0,15.0,-100.00,WNW,292,8.0,10.0,71,-99.99,,,-99.99,,2013-01-17 00:02:00,
2013-01-16 17:12:00,23.0,15.0,-100.00,WNW,292,8.0,10.0,71,-99.99,,,-99.99,,2013-01-17 00:12:00,
2013-01-16 17:22:00,22.0,14.0,-100.00,WNW,295,10.0,12.0,72,-99.99,,,-99.99,,2013-01-17 00:22:00,
2013-01-16 17:32:00,22.0,14.0,-100.00,NW,306,9.0,11.0,72,-99.99,,,-99.99,,2013-01-17 00:32:00,
2013-01-16 17:42:00,21.0,14.0,-100.00,West,268,7.0,11.0,73,-99.99,,,-99.99,,2013-01-17 00:42:00,
2013-01-16 17:52:00,21.0,14.0,-100.00,West,268,7.0,11.0,73,-99.99,,,-99.99,,2013-01-17 00:52:00,
2013-01-16 18:02:00,19.0,13.0,-100.00,West,268,6.0,9.0,75,-99.99,,,-99.99,,2013-01-17 01:02:00,
2013-01-16 18:12:00,19.0,13.0,-100.00,West,268,6.0,9.0,75,-99.99,,,-99.99,,2013-01-17 01:12:00,
2013-01-16 18:22:00,19.0,12.0,-100.00,West,263,4.0,7.0,76,-99.99,,,-99.99,,2013-01-17 01:22:00,
2013-01-16 18:32:00,17.0,11.0,-100.00,West,281,2.0,4.0,77,-99.99,,,-99.99,,2013-01-17 01:32:00,
2013-01-16 18:42:00,17.0,11.0,-100.00,West,281,2.0,4.0,77,-99.99,,,-99.99,,2013-01-17 01:42:00,
2013-01-16 18:52:00,17.0,11.0,-100.00,WNW,303,3.0,4.0,77,-99.99,,,-99.99,,2013-01-17 01:52:00,
2013-01-16 19:02:00,17.0,11.0,-100.00,WNW,303,3.0,4.0,77,-99.99,,,-99.99,,2013-01-17 02:02:00,
2013-01-16 19:12:00,15.0,11.0,-100.00,West,268,5.0,5.0,80,-99.99,,,-99.99,,2013-01-17 02:12:00,
2013-01-16 19:22:00,15.0,11.0,-100.00,West,268,5.0,5.0,80,-99.99,,,-99.99,,2013-01-17 02:22:00,
2013-01-16 19:32:00,13.0,9.0,-100.00,WNW,297,3.0,4.0,81,-99.99,,,-99.99,,2013-01-17 02:32:00,
2013-01-16 19:42:00,13.0,9.0,-100.00,WNW,297,3.0,4.0,81,-99.99,,,-99.99,,2013-01-17 02:42:00,
2013-01-16 19:52:00,13.0,9.0,-100.00,WNW,297,3.0,4.0,81,-99.99,,,-99.99,,2013-01-17 02:52:00,
2013-01-16 20:02:00,13.0,8.0,-100.00,WNW,284,1.0,4.0,82,-99.99,,,-99.99,,2013-01-17 03:02:00,
2013-01-16 20:11:00,8.0,5.0,-100.00,East,101,3.0,5.0,83,-99.99,,,-99.99,,2013-01-17 03:11:00,
2013-01-16 20:22:00,8.0,5.0,-100.00,East,101,3.0,5.0,83,-99.99,,,-99.99,,2013-01-17 03:22:00,
2013-01-16 20:32:00,10.0,7.0,-100.00,ESE,119,0.0,4.0,85,-99.99,,,-99.99,,2013-01-17 03:32:00,
2013-01-16 20:42:00,10.0,7.0,-100.00,ESE,119,0.0,4.0,85,-99.99,,,-99.99,,2013-01-17 03:42:00,
2013-01-16 20:52:00,9.0,5.0,-100.00,NE,44,2.0,3.0,84,-99.99,,,-99.99,,2013-01-17 03:52:00,
2013-01-16 21:02:00,8.0,4.0,-100.00,ESE,108,2.0,3.0,84,-99.99,,,-99.99,,2013-01-17 04:02:00,
2013-01-16 21:22:00,7.0,4.0,-100.00,ESE,107,0.0,3.0,84,-99.99,,,-99.99,,2013-01-17 04:22:00,
2013-01-16 21:32:00,7.0,3.0,-100.00,ENE,76,3.0,4.0,85,-99.99,,,-99.99,,2013-01-17 04:32:00,
2013-01-16 21:42:00,7.0,4.0,-100.00,ENE,74,2.0,4.0,86,-99.99,,,-99.99,,2013-01-17 04:42:00,
2013-01-16 21:52:00,7.0,4.0,-100.00,ENE,74,2.0,4.0,86,-99.99,,,-99.99,,2013-01-17 04:52:00,
2013-01-16 22:12:00,7.0,3.0,-100.00,SE,137,3.0,4.0,85,-99.99,,,-99.99,,2013-01-17 05:12:00,
2013-01-16 22:22:00,7.0,3.0,-100.00,SE,137,3.0,4.0,85,-99.99,,,-99.99,,2013-01-17 05:22:00,
2013-01-16 22:32:00,5.0,2.0,-100.00,SE,142,1.0,2.0,85,-99.99,,,-99.99,,2013-01-17 05:32:00,
2013-01-16 22:42:00,4.0,1.0,-100.00,North,0,0.0,1.0,85,-99.99,,,-99.99,,2013-01-17 05:42:00,
2013-01-16 22:52:00,4.0,1.0,-100.00,North,0,0.0,1.0,85,-99.99,,,-99.99,,2013-01-17 05:52:00,
2013-01-16 23:02:00,4.0,1.0,-100.00,North,0,0.0,1.0,85,-99.99,,,-99.99,,2013-01-17 06:02:00,
2013-01-16 23:11:00,3.0,0.0,-100.00,SE,133,2.0,2.0,85,-99.99,,,-99.99,,2013-01-17 06:11:00,
2013-01-16 23:22:00,3.0,0.0,-100.00,SE,133,2.0,2.0,85,-99.99,,,-99.99,,2013-01-17 06:22:00,
2013-01-16 23:32:00,3.0,0.0,-100.00,ESE,104,3.0,4.0,85,-99.99,,,-99.99,,2013-01-17 06:32:00,
2013-01-16 23:52:00,4.0,1.0,-100.00,SE,124,2.0,4.0,85,-99.99,,,-99.99,,2013-01-17 06:52:00,